sensor_id;sensor_type;location;lat;lon;timestamp;temperature;humidity
59303;DHT22;45074;52.764;6.896;2023-03-23T00:02:26;10.80;99.90
59303;DHT22;45074;52.764;6.896;2023-03-23T00:04:52;12.30;99.90
59303;DHT22;45074;52.764;6.896;2023-03-23T00:07:22;11.00;99.90
59303;DHT22;45074;52.764;6.896;2023-03-23T00:09:49;11.00;99.90
59303;DHT22;45074;52.764;6.896;2023-03-23T00:12:30;11.00;99.90
59303;DHT22;45074;52.764;6.896;2023-03-23T00:15:03;11.00;99.90
59303;DHT22;45074;52.764;6.896;2023-03-23T00:17:30;11.00;99.90
59303;DHT22;45074;52.764;6.896;2023-03-23T00:19:59;9.20;99.90
59303;DHT22;45074;52.764;6.896;2023-03-23T00:22:27;11.00;99.90
59303;DHT22;45074;52.764;6.896;2023-03-23T00:27:20;11.00;99.90
59303;DHT22;45074;52.764;6.896;2023-03-23T00:29:50;11.00;99.90
59303;DHT22;45074;52.764;6.896;2023-03-23T00:32:20;11.60;99.90
59303;DHT22;45074;52.764;6.896;2023-03-23T00:34:53;12.10;99.90
59303;DHT22;45074;52.764;6.896;2023-03-23T00:42:15;11.10;99.90
59303;DHT22;45074;52.764;6.896;2023-03-23T00:44:42;11.30;99.90
59303;DHT22;45074;52.764;6.896;2023-03-23T00:47:10;11.00;99.90
59303;DHT22;45074;52.764;6.896;2023-03-23T00:49:36;11.10;99.90
59303;DHT22;45074;52.764;6.896;2023-03-23T00:52:03;11.10;99.90
59303;DHT22;45074;52.764;6.896;2023-03-23T00:54:30;9.60;99.90
59303;DHT22;45074;52.764;6.896;2023-03-23T00:56:56;10.50;99.90
59303;DHT22;45074;52.764;6.896;2023-03-23T00:59:22;11.10;99.90
59303;DHT22;45074;52.764;6.896;2023-03-23T01:01:48;11.90;99.90
59303;DHT22;45074;52.764;6.896;2023-03-23T01:04:15;11.10;99.90
59303;DHT22;45074;52.764;6.896;2023-03-23T01:06:43;11.20;99.90
59303;DHT22;45074;52.764;6.896;2023-03-23T01:09:11;11.10;99.90
59303;DHT22;45074;52.764;6.896;2023-03-23T01:26:19;11.20;99.90
59303;DHT22;45074;52.764;6.896;2023-03-23T01:28:46;11.30;99.90
59303;DHT22;45074;52.764;6.896;2023-03-23T01:31:17;11.20;99.90
59303;DHT22;45074;52.764;6.896;2023-03-23T01:33:44;11.50;99.90
59303;DHT22;45074;52.764;6.896;2023-03-23T01:36:15;11.00;99.90
59303;DHT22;45074;52.764;6.896;2023-03-23T01:38:43;11.10;99.90
59303;DHT22;45074;52.764;6.896;2023-03-23T01:41:09;11.20;99.90
59303;DHT22;45074;52.764;6.896;2023-03-23T01:43:36;11.20;99.90
59303;DHT22;45074;52.764;6.896;2023-03-23T01:48:31;11.50;99.90
59303;DHT22;45074;52.764;6.896;2023-03-23T01:51:02;11.10;99.90
59303;DHT22;45074;52.764;6.896;2023-03-23T01:54:14;11.30;99.90
59303;DHT22;45074;52.764;6.896;2023-03-23T01:56:24;12.60;99.90
59303;DHT22;45074;52.764;6.896;2023-03-23T01:58:51;11.10;99.90
59303;DHT22;45074;52.764;6.896;2023-03-23T02:01:18;9.50;99.90
59303;DHT22;45074;52.764;6.896;2023-03-23T02:03:47;11.80;99.90
59303;DHT22;45074;52.764;6.896;2023-03-23T02:08:41;11.10;99.90
59303;DHT22;45074;52.764;6.896;2023-03-23T02:11:20;11.20;99.90
59303;DHT22;45074;52.764;6.896;2023-03-23T02:13:47;9.40;99.90
59303;DHT22;45074;52.764;6.896;2023-03-23T02:16:41;11.20;99.90
59303;DHT22;45074;52.764;6.896;2023-03-23T02:33:29;11.20;99.90
59303;DHT22;45074;52.764;6.896;2023-03-23T02:39:08;12.90;99.90
59303;DHT22;45074;52.764;6.896;2023-03-23T02:41:49;11.10;99.90
59303;DHT22;45074;52.764;6.896;2023-03-23T02:44:15;11.30;99.90
59303;DHT22;45074;52.764;6.896;2023-03-23T02:46:42;11.20;99.90
59303;DHT22;45074;52.764;6.896;2023-03-23T02:49:11;11.20;99.90
59303;DHT22;45074;52.764;6.896;2023-03-23T02:51:39;11.40;99.90
59303;DHT22;45074;52.764;6.896;2023-03-23T02:54:06;11.10;99.90
59303;DHT22;45074;52.764;6.896;2023-03-23T02:58:59;11.10;99.90
59303;DHT22;45074;52.764;6.896;2023-03-23T03:03:52;11.20;99.90
59303;DHT22;45074;52.764;6.896;2023-03-23T03:07:28;10.90;99.90
59303;DHT22;45074;52.764;6.896;2023-03-23T03:12:46;11.20;99.90
59303;DHT22;45074;52.764;6.896;2023-03-23T03:18:18;11.60;99.90
59303;DHT22;45074;52.764;6.896;2023-03-23T03:20:50;11.60;99.90
59303;DHT22;45074;52.764;6.896;2023-03-23T03:23:20;11.20;99.90
59303;DHT22;45074;52.764;6.896;2023-03-23T03:25:47;11.20;99.90
59303;DHT22;45074;52.764;6.896;2023-03-23T03:28:19;11.20;99.90
59303;DHT22;45074;52.764;6.896;2023-03-23T03:30:52;11.20;99.90
59303;DHT22;45074;52.764;6.896;2023-03-23T03:33:20;10.30;99.90
59303;DHT22;45074;52.764;6.896;2023-03-23T03:35:47;12.20;99.90
59303;DHT22;45074;52.764;6.896;2023-03-23T03:43:06;11.40;99.90
59303;DHT22;45074;52.764;6.896;2023-03-23T03:45:32;11.60;99.90
59303;DHT22;45074;52.764;6.896;2023-03-23T03:50:26;12.20;99.90
59303;DHT22;45074;52.764;6.896;2023-03-23T03:52:51;10.00;99.90
59303;DHT22;45074;52.764;6.896;2023-03-23T03:55:18;13.20;99.90
59303;DHT22;45074;52.764;6.896;2023-03-23T04:02:47;11.50;99.90
59303;DHT22;45074;52.764;6.896;2023-03-23T04:10:09;11.50;99.90
59303;DHT22;45074;52.764;6.896;2023-03-23T04:12:35;11.50;99.90
59303;DHT22;45074;52.764;6.896;2023-03-23T04:17:27;11.60;99.90
59303;DHT22;45074;52.764;6.896;2023-03-23T04:19:54;11.50;99.90
59303;DHT22;45074;52.764;6.896;2023-03-23T04:22:27;11.50;99.90
59303;DHT22;45074;52.764;6.896;2023-03-23T04:25:00;11.60;99.90
59303;DHT22;45074;52.764;6.896;2023-03-23T04:29:56;11.40;99.90
59303;DHT22;45074;52.764;6.896;2023-03-23T04:32:27;11.50;99.90
59303;DHT22;45074;52.764;6.896;2023-03-23T04:35:00;11.50;99.90
59303;DHT22;45074;52.764;6.896;2023-03-23T04:37:26;11.90;99.90
59303;DHT22;45074;52.764;6.896;2023-03-23T04:39:57;11.40;99.90
59303;DHT22;45074;52.764;6.896;2023-03-23T04:42:30;11.70;99.90
59303;DHT22;45074;52.764;6.896;2023-03-23T04:44:57;11.80;99.90
59303;DHT22;45074;52.764;6.896;2023-03-23T04:47:24;11.40;99.90
59303;DHT22;45074;52.764;6.896;2023-03-23T04:49:51;11.50;99.90
59303;DHT22;45074;52.764;6.896;2023-03-23T04:52:17;11.50;99.90
59303;DHT22;45074;52.764;6.896;2023-03-23T04:54:43;10.20;99.90
59303;DHT22;45074;52.764;6.896;2023-03-23T04:59:37;11.80;99.90
59303;DHT22;45074;52.764;6.896;2023-03-23T05:04:29;13.40;99.90
59303;DHT22;45074;52.764;6.896;2023-03-23T05:16:39;11.30;99.90
59303;DHT22;45074;52.764;6.896;2023-03-23T05:26:26;11.50;99.90
59303;DHT22;45074;52.764;6.896;2023-03-23T05:28:55;11.50;99.90
59303;DHT22;45074;52.764;6.896;2023-03-23T05:31:21;11.20;99.90
59303;DHT22;45074;52.764;6.896;2023-03-23T05:33:48;12.00;99.90
59303;DHT22;45074;52.764;6.896;2023-03-23T05:48:29;11.30;99.90
59303;DHT22;45074;52.764;6.896;2023-03-23T05:50:54;10.70;99.90
59303;DHT22;45074;52.764;6.896;2023-03-23T05:53:20;10.10;99.90
59303;DHT22;45074;52.764;6.896;2023-03-23T05:55:46;12.30;99.90
59303;DHT22;45074;52.764;6.896;2023-03-23T05:58:12;10.40;99.90
59303;DHT22;45074;52.764;6.896;2023-03-23T06:00:38;10.30;99.90
59303;DHT22;45074;52.764;6.896;2023-03-23T06:03:04;8.90;99.90
59303;DHT22;45074;52.764;6.896;2023-03-23T06:05:30;10.00;99.90
59303;DHT22;45074;52.764;6.896;2023-03-23T06:07:55;10.10;99.90
59303;DHT22;45074;52.764;6.896;2023-03-23T06:10:21;10.10;99.90
59303;DHT22;45074;52.764;6.896;2023-03-23T06:12:49;10.00;99.90
59303;DHT22;45074;52.764;6.896;2023-03-23T06:15:15;10.20;99.90
59303;DHT22;45074;52.764;6.896;2023-03-23T06:17:41;10.10;99.90
59303;DHT22;45074;52.764;6.896;2023-03-23T06:20:07;10.00;99.90
59303;DHT22;45074;52.764;6.896;2023-03-23T06:22:36;11.00;99.90
59303;DHT22;45074;52.764;6.896;2023-03-23T06:25:04;10.10;99.90
59303;DHT22;45074;52.764;6.896;2023-03-23T06:27:29;10.10;99.90
59303;DHT22;45074;52.764;6.896;2023-03-23T06:29:55;10.10;99.90
59303;DHT22;45074;52.764;6.896;2023-03-23T06:32:23;10.20;99.90
59303;DHT22;45074;52.764;6.896;2023-03-23T06:34:49;10.20;99.90
59303;DHT22;45074;52.764;6.896;2023-03-23T06:37:15;10.30;99.90
59303;DHT22;45074;52.764;6.896;2023-03-23T06:39:41;10.20;99.90
59303;DHT22;45074;52.764;6.896;2023-03-23T06:42:11;10.90;99.90
59303;DHT22;45074;52.764;6.896;2023-03-23T06:44:37;10.30;99.90
59303;DHT22;45074;52.764;6.896;2023-03-23T06:47:03;10.50;99.90
59303;DHT22;45074;52.764;6.896;2023-03-23T06:49:29;10.50;99.90
59303;DHT22;45074;52.764;6.896;2023-03-23T06:51:55;10.50;99.90
59303;DHT22;45074;52.764;6.896;2023-03-23T06:54:21;11.10;99.90
59303;DHT22;45074;52.764;6.896;2023-03-23T06:56:47;10.70;99.90
59303;DHT22;45074;52.764;6.896;2023-03-23T06:59:13;10.80;99.90
59303;DHT22;45074;52.764;6.896;2023-03-23T07:01:39;10.90;99.90
59303;DHT22;45074;52.764;6.896;2023-03-23T07:04:05;11.10;99.90
59303;DHT22;45074;52.764;6.896;2023-03-23T07:06:31;10.60;99.90
59303;DHT22;45074;52.764;6.896;2023-03-23T07:08:57;10.80;99.90
59303;DHT22;45074;52.764;6.896;2023-03-23T07:11:22;11.30;99.90
59303;DHT22;45074;52.764;6.896;2023-03-23T07:13:48;10.80;99.90
59303;DHT22;45074;52.764;6.896;2023-03-23T07:16:16;10.90;99.90
59303;DHT22;45074;52.764;6.896;2023-03-23T07:23:35;12.00;99.90
59303;DHT22;45074;52.764;6.896;2023-03-23T07:28:29;11.10;99.90
59303;DHT22;45074;52.764;6.896;2023-03-23T07:38:14;11.00;99.90
59303;DHT22;45074;52.764;6.896;2023-03-23T07:43:06;10.90;99.90
59303;DHT22;45074;52.764;6.896;2023-03-23T07:45:32;11.20;99.90
59303;DHT22;45074;52.764;6.896;2023-03-23T07:47:59;11.00;99.90
59303;DHT22;45074;52.764;6.896;2023-03-23T07:50:25;11.10;99.90
59303;DHT22;45074;52.764;6.896;2023-03-23T07:52:54;11.10;99.90
59303;DHT22;45074;52.764;6.896;2023-03-23T07:55:20;11.70;99.90
59303;DHT22;45074;52.764;6.896;2023-03-23T07:57:47;11.20;99.90
59303;DHT22;45074;52.764;6.896;2023-03-23T08:00:17;11.20;99.90
59303;DHT22;45074;52.764;6.896;2023-03-23T08:02:50;12.40;99.90
59303;DHT22;45074;52.764;6.896;2023-03-23T08:05:16;11.30;99.90
59303;DHT22;45074;52.764;6.896;2023-03-23T08:07:43;10.50;99.90
59303;DHT22;45074;52.764;6.896;2023-03-23T08:10:11;11.20;99.90
59303;DHT22;45074;52.764;6.896;2023-03-23T08:12:38;11.80;99.90
59303;DHT22;45074;52.764;6.896;2023-03-23T08:15:06;11.50;99.90
59303;DHT22;45074;52.764;6.896;2023-03-23T08:19:58;9.70;99.90
59303;DHT22;45074;52.764;6.896;2023-03-23T08:27:16;12.00;99.90
59303;DHT22;45074;52.764;6.896;2023-03-23T08:29:44;11.60;99.90
59303;DHT22;45074;52.764;6.896;2023-03-23T08:32:11;11.50;99.90
59303;DHT22;45074;52.764;6.896;2023-03-23T08:37:03;11.70;99.90
59303;DHT22;45074;52.764;6.896;2023-03-23T08:39:29;10.90;99.90
59303;DHT22;45074;52.764;6.896;2023-03-23T08:41:56;11.30;99.90
59303;DHT22;45074;52.764;6.896;2023-03-23T08:44:22;10.80;99.90
59303;DHT22;45074;52.764;6.896;2023-03-23T08:46:47;11.70;99.90
59303;DHT22;45074;52.764;6.896;2023-03-23T08:49:13;10.10;99.90
59303;DHT22;45074;52.764;6.896;2023-03-23T08:51:39;11.50;99.90
59303;DHT22;45074;52.764;6.896;2023-03-23T08:54:06;11.70;99.90
59303;DHT22;45074;52.764;6.896;2023-03-23T08:56:32;11.70;99.90
59303;DHT22;45074;52.764;6.896;2023-03-23T08:58:58;11.70;99.90
59303;DHT22;45074;52.764;6.896;2023-03-23T09:01:24;11.70;99.90
59303;DHT22;45074;52.764;6.896;2023-03-23T09:03:50;11.70;99.90
59303;DHT22;45074;52.764;6.896;2023-03-23T09:06:16;11.70;99.90
59303;DHT22;45074;52.764;6.896;2023-03-23T09:08:41;11.80;99.90
59303;DHT22;45074;52.764;6.896;2023-03-23T09:11:08;11.80;99.90
59303;DHT22;45074;52.764;6.896;2023-03-23T09:13:36;11.80;99.90
59303;DHT22;45074;52.764;6.896;2023-03-23T09:16:03;11.80;99.90
59303;DHT22;45074;52.764;6.896;2023-03-23T09:18:30;11.80;99.90
59303;DHT22;45074;52.764;6.896;2023-03-23T09:20:58;12.00;99.90
59303;DHT22;45074;52.764;6.896;2023-03-23T09:23:25;11.70;99.90
59303;DHT22;45074;52.764;6.896;2023-03-23T09:25:51;12.20;99.90
59303;DHT22;45074;52.764;6.896;2023-03-23T09:28:18;12.20;99.90
59303;DHT22;45074;52.764;6.896;2023-03-23T09:30:44;11.90;99.90
59303;DHT22;45074;52.764;6.896;2023-03-23T09:33:11;11.80;99.90
59303;DHT22;45074;52.764;6.896;2023-03-23T09:35:37;11.50;99.90
59303;DHT22;45074;52.764;6.896;2023-03-23T09:38:05;11.80;99.90
59303;DHT22;45074;52.764;6.896;2023-03-23T09:40:48;12.10;99.90
59303;DHT22;45074;52.764;6.896;2023-03-23T09:48:59;11.80;99.90
59303;DHT22;45074;52.764;6.896;2023-03-23T09:51:52;12.00;99.90
59303;DHT22;45074;52.764;6.896;2023-03-23T09:54:23;12.10;99.90
59303;DHT22;45074;52.764;6.896;2023-03-23T09:56:50;12.30;99.90
59303;DHT22;45074;52.764;6.896;2023-03-23T09:59:40;12.50;99.90
59303;DHT22;45074;52.764;6.896;2023-03-23T10:02:38;12.00;99.90
59303;DHT22;45074;52.764;6.896;2023-03-23T10:05:32;11.40;99.90
59303;DHT22;45074;52.764;6.896;2023-03-23T10:08:00;12.70;99.90
59303;DHT22;45074;52.764;6.896;2023-03-23T10:10:45;12.00;99.90
59303;DHT22;45074;52.764;6.896;2023-03-23T10:16:22;13.30;99.90
59303;DHT22;45074;52.764;6.896;2023-03-23T10:21:17;13.20;99.90
59303;DHT22;45074;52.764;6.896;2023-03-23T10:31:36;13.60;99.90
59303;DHT22;45074;52.764;6.896;2023-03-23T10:34:13;13.60;99.90
59303;DHT22;45074;52.764;6.896;2023-03-23T10:37:10;13.50;99.90
59303;DHT22;45074;52.764;6.896;2023-03-23T10:39:51;13.80;99.90
59303;DHT22;45074;52.764;6.896;2023-03-23T10:42:30;13.80;99.90
59303;DHT22;45074;52.764;6.896;2023-03-23T10:44:59;14.00;99.90
59303;DHT22;45074;52.764;6.896;2023-03-23T10:50:02;14.10;99.90
59303;DHT22;45074;52.764;6.896;2023-03-23T10:57:39;14.70;99.90
59303;DHT22;45074;52.764;6.896;2023-03-23T11:00:17;14.40;99.90
59303;DHT22;45074;52.764;6.896;2023-03-23T11:06:11;14.30;99.90
59303;DHT22;45074;52.764;6.896;2023-03-23T11:08:23;13.70;99.90
59303;DHT22;45074;52.764;6.896;2023-03-23T11:10:58;14.00;99.90
59303;DHT22;45074;52.764;6.896;2023-03-23T11:13:31;14.10;99.90
59303;DHT22;45074;52.764;6.896;2023-03-23T11:15:57;14.20;99.90
59303;DHT22;45074;52.764;6.896;2023-03-23T11:18:36;14.20;99.90
59303;DHT22;45074;52.764;6.896;2023-03-23T11:21:03;14.30;99.90
59303;DHT22;45074;52.764;6.896;2023-03-23T11:23:39;14.40;99.90
59303;DHT22;45074;52.764;6.896;2023-03-23T11:26:32;14.60;99.90
59303;DHT22;45074;52.764;6.896;2023-03-23T11:29:23;14.70;99.90
59303;DHT22;45074;52.764;6.896;2023-03-23T11:32:09;16.80;99.90
59303;DHT22;45074;52.764;6.896;2023-03-23T11:34:44;15.40;99.90
59303;DHT22;45074;52.764;6.896;2023-03-23T11:37:20;14.80;99.90
59303;DHT22;45074;52.764;6.896;2023-03-23T11:40:00;14.80;99.90
59303;DHT22;45074;52.764;6.896;2023-03-23T11:42:36;14.60;99.90
59303;DHT22;45074;52.764;6.896;2023-03-23T11:45:17;15.10;99.90
59303;DHT22;45074;52.764;6.896;2023-03-23T11:47:47;15.50;99.90
59303;DHT22;45074;52.764;6.896;2023-03-23T11:53:02;15.40;99.90
59303;DHT22;45074;52.764;6.896;2023-03-23T11:55:49;15.00;99.90
59303;DHT22;45074;52.764;6.896;2023-03-23T11:58:20;14.80;99.90
59303;DHT22;45074;52.764;6.896;2023-03-23T12:00:58;14.60;99.90
59303;DHT22;45074;52.764;6.896;2023-03-23T12:14:11;15.80;99.90
59303;DHT22;45074;52.764;6.896;2023-03-23T12:25:45;16.80;99.90
59303;DHT22;45074;52.764;6.896;2023-03-23T12:31:23;18.80;99.90
59303;DHT22;45074;52.764;6.896;2023-03-23T12:48:16;17.50;99.90
59303;DHT22;45074;52.764;6.896;2023-03-23T12:51:01;17.20;99.90
59303;DHT22;45074;52.764;6.896;2023-03-23T12:53:31;15.20;99.90
59303;DHT22;45074;52.764;6.896;2023-03-23T12:58:46;16.40;99.90
59303;DHT22;45074;52.764;6.896;2023-03-23T13:01:20;16.80;99.90
59303;DHT22;45074;52.764;6.896;2023-03-23T13:03:58;15.70;99.90
59303;DHT22;45074;52.764;6.896;2023-03-23T13:06:40;17.40;99.90
59303;DHT22;45074;52.764;6.896;2023-03-23T13:09:19;17.50;99.90
59303;DHT22;45074;52.764;6.896;2023-03-23T13:11:47;18.10;99.90
59303;DHT22;45074;52.764;6.896;2023-03-23T13:26:18;16.60;99.90
59303;DHT22;45074;52.764;6.896;2023-03-23T13:28:27;18.50;99.90
59303;DHT22;45074;52.764;6.896;2023-03-23T13:31:15;18.30;99.90
59303;DHT22;45074;52.764;6.896;2023-03-23T13:33:52;18.10;99.90
59303;DHT22;45074;52.764;6.896;2023-03-23T13:36:39;16.80;99.90
59303;DHT22;45074;52.764;6.896;2023-03-23T13:39:18;16.50;99.90
59303;DHT22;45074;52.764;6.896;2023-03-23T13:41:58;16.10;99.90
59303;DHT22;45074;52.764;6.896;2023-03-23T13:44:25;15.90;99.90
59303;DHT22;45074;52.764;6.896;2023-03-23T13:47:07;15.20;99.90
59303;DHT22;45074;52.764;6.896;2023-03-23T13:49:46;15.80;99.90
59303;DHT22;45074;52.764;6.896;2023-03-23T14:07:59;16.20;99.90
59303;DHT22;45074;52.764;6.896;2023-03-23T14:10:43;17.10;99.90
59303;DHT22;45074;52.764;6.896;2023-03-23T14:13:24;17.30;99.90
59303;DHT22;45074;52.764;6.896;2023-03-23T14:16:13;16.30;99.90
59303;DHT22;45074;52.764;6.896;2023-03-23T14:18:40;17.30;99.90
59303;DHT22;45074;52.764;6.896;2023-03-23T14:21:15;17.80;99.90
59303;DHT22;45074;52.764;6.896;2023-03-23T14:26:17;19.20;99.90
59303;DHT22;45074;52.764;6.896;2023-03-23T14:28:50;20.20;99.90
59303;DHT22;45074;52.764;6.896;2023-03-23T14:31:23;20.20;99.90
59303;DHT22;45074;52.764;6.896;2023-03-23T14:33:50;20.50;99.90
59303;DHT22;45074;52.764;6.896;2023-03-23T14:36:24;20.10;99.90
59303;DHT22;45074;52.764;6.896;2023-03-23T14:39:13;19.60;99.90
59303;DHT22;45074;52.764;6.896;2023-03-23T14:41:40;19.50;99.90
59303;DHT22;45074;52.764;6.896;2023-03-23T14:44:08;17.90;99.90
59303;DHT22;45074;52.764;6.896;2023-03-23T14:46:34;17.90;99.90
59303;DHT22;45074;52.764;6.896;2023-03-23T14:49:05;17.10;99.90
59303;DHT22;45074;52.764;6.896;2023-03-23T14:51:31;17.00;99.90
59303;DHT22;45074;52.764;6.896;2023-03-23T14:53:59;16.40;99.90
59303;DHT22;45074;52.764;6.896;2023-03-23T14:56:35;16.40;99.90
59303;DHT22;45074;52.764;6.896;2023-03-23T14:59:05;16.00;99.90
59303;DHT22;45074;52.764;6.896;2023-03-23T15:01:33;15.50;99.90
59303;DHT22;45074;52.764;6.896;2023-03-23T15:04:09;14.40;99.90
59303;DHT22;45074;52.764;6.896;2023-03-23T15:06:37;14.60;99.90
59303;DHT22;45074;52.764;6.896;2023-03-23T15:09:09;14.30;99.90
59303;DHT22;45074;52.764;6.896;2023-03-23T15:11:38;14.90;99.90
59303;DHT22;45074;52.764;6.896;2023-03-23T15:14:17;14.70;99.90
59303;DHT22;45074;52.764;6.896;2023-03-23T15:16:48;14.80;99.90
59303;DHT22;45074;52.764;6.896;2023-03-23T15:19:41;15.20;99.90
59303;DHT22;45074;52.764;6.896;2023-03-23T15:24:46;14.40;99.90
59303;DHT22;45074;52.764;6.896;2023-03-23T15:27:41;15.40;99.90
59303;DHT22;45074;52.764;6.896;2023-03-23T15:32:52;16.10;99.90
59303;DHT22;45074;52.764;6.896;2023-03-23T15:35:23;16.60;99.90
59303;DHT22;45074;52.764;6.896;2023-03-23T15:38:00;17.20;99.90
59303;DHT22;45074;52.764;6.896;2023-03-23T15:40:27;17.40;99.90
59303;DHT22;45074;52.764;6.896;2023-03-23T15:43:31;18.70;99.90
59303;DHT22;45074;52.764;6.896;2023-03-23T15:45:59;18.60;99.90
59303;DHT22;45074;52.764;6.896;2023-03-23T15:51:25;17.90;99.90
59303;DHT22;45074;52.764;6.896;2023-03-23T15:53:53;19.20;99.90
59303;DHT22;45074;52.764;6.896;2023-03-23T15:58:45;16.40;99.90
59303;DHT22;45074;52.764;6.896;2023-03-23T16:01:20;16.70;99.90
59303;DHT22;45074;52.764;6.896;2023-03-23T16:03:52;16.00;99.90
59303;DHT22;45074;52.764;6.896;2023-03-23T16:06:20;15.50;99.90
59303;DHT22;45074;52.764;6.896;2023-03-23T16:11:16;15.20;99.90
59303;DHT22;45074;52.764;6.896;2023-03-23T16:13:42;15.00;99.90
59303;DHT22;45074;52.764;6.896;2023-03-23T16:16:21;14.40;99.90
59303;DHT22;45074;52.764;6.896;2023-03-23T16:26:09;13.90;99.90
59303;DHT22;45074;52.764;6.896;2023-03-23T16:31:01;13.60;99.90
59303;DHT22;45074;52.764;6.896;2023-03-23T16:33:26;13.70;99.90
59303;DHT22;45074;52.764;6.896;2023-03-23T16:40:45;13.40;99.90
59303;DHT22;45074;52.764;6.896;2023-03-23T16:43:12;12.90;99.90
59303;DHT22;45074;52.764;6.896;2023-03-23T16:45:39;13.70;99.90
59303;DHT22;45074;52.764;6.896;2023-03-23T16:48:06;13.50;99.90
59303;DHT22;45074;52.764;6.896;2023-03-23T16:50:33;13.50;99.90
59303;DHT22;45074;52.764;6.896;2023-03-23T16:55:25;12.90;99.90
59303;DHT22;45074;52.764;6.896;2023-03-23T16:57:53;13.30;99.90
59303;DHT22;45074;52.764;6.896;2023-03-23T17:02:48;13.10;99.90
59303;DHT22;45074;52.764;6.896;2023-03-23T17:05:16;13.00;99.90
59303;DHT22;45074;52.764;6.896;2023-03-23T17:10:10;12.30;99.90
59303;DHT22;45074;52.764;6.896;2023-03-23T17:15:03;13.10;99.90
59303;DHT22;45074;52.764;6.896;2023-03-23T17:17:29;12.60;99.90
59303;DHT22;45074;52.764;6.896;2023-03-23T17:24:47;12.50;99.90
59303;DHT22;45074;52.764;6.896;2023-03-23T17:27:15;13.00;99.90
59303;DHT22;45074;52.764;6.896;2023-03-23T17:54:04;13.70;99.90
59303;DHT22;45074;52.764;6.896;2023-03-23T17:56:30;13.40;99.90
59303;DHT22;45074;52.764;6.896;2023-03-23T18:03:47;12.90;99.90
59303;DHT22;45074;52.764;6.896;2023-03-23T18:11:06;12.30;99.90
59303;DHT22;45074;52.764;6.896;2023-03-23T18:13:34;12.40;99.90
59303;DHT22;45074;52.764;6.896;2023-03-23T18:20:57;12.30;99.90
59303;DHT22;45074;52.764;6.896;2023-03-23T18:23:24;12.30;99.90
59303;DHT22;45074;52.764;6.896;2023-03-23T18:25:51;11.50;99.90
59303;DHT22;45074;52.764;6.896;2023-03-23T18:28:19;12.30;99.90
59303;DHT22;45074;52.764;6.896;2023-03-23T18:33:14;12.30;99.90
59303;DHT22;45074;52.764;6.896;2023-03-23T18:45:25;14.00;99.90
59303;DHT22;45074;52.764;6.896;2023-03-23T18:47:51;13.80;99.90
59303;DHT22;45074;52.764;6.896;2023-03-23T18:52:43;12.40;99.90
59303;DHT22;45074;52.764;6.896;2023-03-23T18:55:09;12.20;99.90
59303;DHT22;45074;52.764;6.896;2023-03-23T18:57:38;12.20;99.90
59303;DHT22;45074;52.764;6.896;2023-03-23T19:09:48;12.10;99.90
59303;DHT22;45074;52.764;6.896;2023-03-23T19:17:07;12.00;99.90
59303;DHT22;45074;52.764;6.896;2023-03-23T19:24:26;12.00;99.90
59303;DHT22;45074;52.764;6.896;2023-03-23T19:26:55;11.80;99.90
59303;DHT22;45074;52.764;6.896;2023-03-23T19:31:47;11.00;99.90
59303;DHT22;45074;52.764;6.896;2023-03-23T19:34:14;11.90;99.90
59303;DHT22;45074;52.764;6.896;2023-03-23T19:36:40;12.00;99.90
59303;DHT22;45074;52.764;6.896;2023-03-23T19:41:33;12.00;99.90
59303;DHT22;45074;52.764;6.896;2023-03-23T19:43:59;12.40;99.90
59303;DHT22;45074;52.764;6.896;2023-03-23T19:48:52;12.20;99.90
59303;DHT22;45074;52.764;6.896;2023-03-23T19:51:20;10.50;99.90
59303;DHT22;45074;52.764;6.896;2023-03-23T19:53:47;14.20;99.90
59303;DHT22;45074;52.764;6.896;2023-03-23T19:56:15;12.10;99.90
59303;DHT22;45074;52.764;6.896;2023-03-23T20:01:07;12.00;99.90
59303;DHT22;45074;52.764;6.896;2023-03-23T20:06:10;12.00;99.90
59303;DHT22;45074;52.764;6.896;2023-03-23T20:08:39;12.00;99.90
59303;DHT22;45074;52.764;6.896;2023-03-23T20:11:07;11.90;99.90
59303;DHT22;45074;52.764;6.896;2023-03-23T20:13:33;10.30;99.90
59303;DHT22;45074;52.764;6.896;2023-03-23T20:15:59;12.30;99.90
59303;DHT22;45074;52.764;6.896;2023-03-23T20:18:25;12.50;99.90
59303;DHT22;45074;52.764;6.896;2023-03-23T20:35:27;11.90;99.90
59303;DHT22;45074;52.764;6.896;2023-03-23T20:40:20;12.90;99.90
59303;DHT22;45074;52.764;6.896;2023-03-23T20:42:46;11.90;99.90
59303;DHT22;45074;52.764;6.896;2023-03-23T20:47:39;10.50;99.90
59303;DHT22;45074;52.764;6.896;2023-03-23T20:50:06;11.80;99.90
59303;DHT22;45074;52.764;6.896;2023-03-23T20:52:33;11.90;99.90
59303;DHT22;45074;52.764;6.896;2023-03-23T20:54:59;12.10;99.90
59303;DHT22;45074;52.764;6.896;2023-03-23T20:57:26;11.70;99.90
59303;DHT22;45074;52.764;6.896;2023-03-23T21:02:20;11.80;99.90
59303;DHT22;45074;52.764;6.896;2023-03-23T21:04:47;11.70;99.90
59303;DHT22;45074;52.764;6.896;2023-03-23T21:07:14;11.40;99.90
59303;DHT22;45074;52.764;6.896;2023-03-23T21:09:41;11.70;99.90
59303;DHT22;45074;52.764;6.896;2023-03-23T21:12:07;11.70;99.90
59303;DHT22;45074;52.764;6.896;2023-03-23T21:14:36;11.70;99.90
59303;DHT22;45074;52.764;6.896;2023-03-23T21:17:03;10.40;99.90
59303;DHT22;45074;52.764;6.896;2023-03-23T21:21:56;11.70;99.90
59303;DHT22;45074;52.764;6.896;2023-03-23T21:24:23;11.60;99.90
59303;DHT22;45074;52.764;6.896;2023-03-23T21:26:52;11.60;99.90
59303;DHT22;45074;52.764;6.896;2023-03-23T21:29:18;10.50;99.90
59303;DHT22;45074;52.764;6.896;2023-03-23T21:31:44;10.50;99.90
59303;DHT22;45074;52.764;6.896;2023-03-23T21:36:38;11.30;99.90
59303;DHT22;45074;52.764;6.896;2023-03-23T21:39:04;11.60;99.90
59303;DHT22;45074;52.764;6.896;2023-03-23T21:41:31;13.20;99.90
59303;DHT22;45074;52.764;6.896;2023-03-23T21:46:25;11.70;99.90
59303;DHT22;45074;52.764;6.896;2023-03-23T21:48:50;11.10;99.90
59303;DHT22;45074;52.764;6.896;2023-03-23T21:51:22;11.70;99.90
59303;DHT22;45074;52.764;6.896;2023-03-23T21:58:42;10.20;99.90
59303;DHT22;45074;52.764;6.896;2023-03-23T22:01:09;12.70;99.90
59303;DHT22;45074;52.764;6.896;2023-03-23T22:03:35;10.70;99.90
59303;DHT22;45074;52.764;6.896;2023-03-23T22:06:19;11.70;99.90
59303;DHT22;45074;52.764;6.896;2023-03-23T22:08:46;11.60;99.90
59303;DHT22;45074;52.764;6.896;2023-03-23T22:11:23;10.00;99.90
59303;DHT22;45074;52.764;6.896;2023-03-23T22:13:51;12.20;99.90
59303;DHT22;45074;52.764;6.896;2023-03-23T22:16:18;11.60;99.90
59303;DHT22;45074;52.764;6.896;2023-03-23T22:21:11;11.80;99.90
59303;DHT22;45074;52.764;6.896;2023-03-23T22:23:38;11.50;99.90
59303;DHT22;45074;52.764;6.896;2023-03-23T22:26:05;11.40;99.90
59303;DHT22;45074;52.764;6.896;2023-03-23T22:28:31;11.70;99.90
59303;DHT22;45074;52.764;6.896;2023-03-23T22:31:24;11.50;99.90
59303;DHT22;45074;52.764;6.896;2023-03-23T22:33:52;10.50;99.90